Island Lookout — WDF6311 — position and weather

sailwx.info

Track history (hours):
 
Tides and Currents Weather Stations Pressure Air Temp Water Temp Dewpoint Dewpoint Depression Visibility Wind Speed Wind Dir Waves Ship Positions

Island Lookout

Owner: Stevens Towing Company Inc., Yonges Island, SC. More information available from US FCC via Universal Licensing System and Coast Guard Vessel Documentation Center.

Last reported at 2017-Jan-19 22:12 UTC. Time now 2017-Jan-24 11:17 UTC.
Position N 36°43' W 076°07'.

Length 22 m; draft 2.9 m.

Type: Towing. MMSI: 367472930.

Date/timePositionNaut miles runAvg speedWind from/ knotsBaromVisibWave heightAir tempDewpointWater temp
2017-Jan-19 22:12N 36°43' W 076°07'6 2.9
2017-Jan-19 20:14N 36°43' W 076°14'1 0.4
2017-Jan-19 17:31N 36°43' W 076°15'4 4.1
2017-Jan-19 16:33N 36°47' W 076°18'5 5.0
2017-Jan-19 15:33N 36°52' W 076°19'146 6.1
2017-Jan-18 15:32N 39°17' W 076°14'6 6.1
2017-Jan-18 14:31N 39°22' W 076°08'6 6.7
2017-Jan-18 13:33N 39°25' W 076°01'7 7.0
2017-Jan-18 12:33N 39°30' W 075°55'7 7.2
2017-Jan-18 11:33N 39°32' W 075°46'7 6.7
2017-Jan-18 10:33N 39°33' W 075°37'4 3.7
2017-Jan-18 09:33N 39°34' W 075°33'1 0.6
2017-Jan-18 08:33N 39°35' W 075°33'1 0.6
2017-Jan-18 07:33N 39°34' W 075°33'0 0.4
2017-Jan-18 06:33N 39°35' W 075°33'0 0.3
2017-Jan-18 05:33N 39°35' W 075°33'1 0.6
2017-Jan-18 04:33N 39°34' W 075°33'0 0.2
2017-Jan-18 03:33N 39°34' W 075°33'2 1.9
2017-Jan-18 02:33N 39°36' W 075°34'8 7.6
2017-Jan-18 01:33N 39°43' W 075°30'8 7.9
2017-Jan-18 00:33N 39°49' W 075°24'7 7.4
2017-Jan-17 23:33N 39°51' W 075°15'6 5.9
2017-Jan-17 22:33N 39°54' W 075°08'1 0.9
2017-Jan-17 21:33N 39°53' W 075°08'6 5.6
2017-Jan-17 20:34N 39°51' W 075°15'0 0.0
2017-Jan-17 19:33N 39°51' W 075°15'0 0.0
2017-Jan-17 18:33N 39°51' W 075°15'4 3.8
2017-Jan-17 17:33N 39°53' W 075°11'4 3.7
2017-Jan-17 16:33N 39°56' W 075°08'0 0.0
2017-Jan-17 15:33N 39°56' W 075°08'0 0.0
2017-Jan-17 14:33N 39°56' W 075°08'0 0.0
2017-Jan-17 13:33N 39°56' W 075°08'0 0.0
2017-Jan-17 12:33N 39°56' W 075°08'0 0.0
2017-Jan-17 11:33N 39°56' W 075°08'0 0.0
2017-Jan-17 10:33N 39°56' W 075°08'0 0.0
2017-Jan-17 09:33N 39°56' W 075°08'0 0.0
2017-Jan-17 08:33N 39°56' W 075°08'0 0.0
2017-Jan-17 07:33N 39°56' W 075°08'0 0.0
2017-Jan-17 06:33N 39°56' W 075°08'0 0.0
2017-Jan-17 05:33N 39°56' W 075°08'0 0.0
2017-Jan-17 04:33N 39°56' W 075°08'0 0.0
2017-Jan-17 03:33N 39°56' W 075°08'0 0.0
2017-Jan-17 02:33N 39°56' W 075°08'0 0.0
2017-Jan-17 01:33N 39°56' W 075°08'0 0.0
2017-Jan-17 00:34N 39°56' W 075°08'0 0.0
2017-Jan-16 23:33N 39°56' W 075°08'4 4.3
2017-Jan-16 22:33N 39°53' W 075°12'5 5.3
2017-Jan-16 21:33N 39°51' W 075°18'7 7.2
2017-Jan-16 20:33N 39°48' W 075°26'8 7.5
2017-Jan-16 19:33N 39°41' W 075°31'7 6.7
2017-Jan-16 18:33N 39°34' W 075°33'6 6.0
2017-Jan-16 17:33N 39°33' W 075°40'7 7.0
2017-Jan-16 16:33N 39°32' W 075°49'7 7.4
2017-Jan-16 15:33N 39°28' W 075°58'8 7.6
2017-Jan-16 14:33N 39°23' W 076°05'7 7.2
2017-Jan-16 13:33N 39°19' W 076°13'8 6.7
2017-Jan-16 12:25N 39°12' W 076°16'5 6.3
2017-Jan-16 11:33N 39°07' W 076°20'7 6.8
2017-Jan-16 10:33N 39°01' W 076°22'6 6.3
2017-Jan-16 09:33N 38°55' W 076°25'6 6.2
2017-Jan-16 08:31N 38°49' W 076°27'7 6.3
2017-Jan-16 07:26N 38°42' W 076°28'105 4.9
2017-Jan-15 10:06N 36°57' W 076°20'4 7.1
2017-Jan-15 09:33N 36°53' W 076°20'6 6.2
2017-Jan-15 08:33N 36°47' W 076°18'4 3.7
2017-Jan-15 07:33N 36°44' W 076°16'  
2017-Jan-12 23:28N 36°43' W 076°13'2 2.4
2017-Jan-12 22:33N 36°44' W 076°15'4 3.7
2017-Jan-12 21:33N 36°47' W 076°18'0 0.2
2017-Jan-12 20:33N 36°47' W 076°18'0 0.0
2017-Jan-12 19:33N 36°47' W 076°18'0 0.0
2017-Jan-12 18:33N 36°47' W 076°18'0 0.0
2017-Jan-12 17:33N 36°47' W 076°18'0 0.0
2017-Jan-12 16:33N 36°47' W 076°18'0 0.0
2017-Jan-12 15:33N 36°47' W 076°18'0 0.0
2017-Jan-12 14:33N 36°47' W 076°18'0 0.0
2017-Jan-12 13:33N 36°47' W 076°18'0 0.0
2017-Jan-12 12:33N 36°47' W 076°18'0 0.0
2017-Jan-12 11:33N 36°47' W 076°18'0 0.0
2017-Jan-12 10:33N 36°47' W 076°18'4 3.6
2017-Jan-12 09:27N 36°43' W 076°15'3 0.1
2017-Jan-10 07:24N 36°43' W 076°11'3 3.4
2017-Jan-10 06:33N 36°43' W 076°15'1 0.8
2017-Jan-10 05:33N 36°44' W 076°16'3 3.4
2017-Jan-10 04:33N 36°47' W 076°18'4 4.4
2017-Jan-10 03:33N 36°51' W 076°18'6 5.7
2017-Jan-10 02:33N 36°56' W 076°20'  
Track history (hours):
 
Tides and Currents Weather Stations Pressure Air Temp Water Temp Dewpoint Dewpoint Depression Visibility Wind Speed Wind Dir Waves Ship Positions

Island Lookout

Owner: Stevens Towing Company Inc., Yonges Island, SC. More information available from US FCC via Universal Licensing System and Coast Guard Vessel Documentation Center.

Last reported at 2017-Jan-19 22:12 UTC. Time now 2017-Jan-24 11:17 UTC.
Position N 36°43' W 076°07'.

Length 22 m; draft 2.9 m.

Type: Towing. MMSI: 367472930.

Date/timePositionNaut miles runAvg speedWind from/ knotsBaromVisibWave heightAir tempDewpointWater temp
2017-Jan-19 22:12N 36°43' W 076°07'6 2.9
2017-Jan-19 20:14N 36°43' W 076°14'1 0.4
2017-Jan-19 17:31N 36°43' W 076°15'4 4.1
2017-Jan-19 16:33N 36°47' W 076°18'5 5.0
2017-Jan-19 15:33N 36°52' W 076°19'146 6.1
2017-Jan-18 15:32N 39°17' W 076°14'6 6.1
2017-Jan-18 14:31N 39°22' W 076°08'6 6.7
2017-Jan-18 13:33N 39°25' W 076°01'7 7.0
2017-Jan-18 12:33N 39°30' W 075°55'7 7.2
2017-Jan-18 11:33N 39°32' W 075°46'7 6.7
2017-Jan-18 10:33N 39°33' W 075°37'4 3.7
2017-Jan-18 09:33N 39°34' W 075°33'1 0.6
2017-Jan-18 08:33N 39°35' W 075°33'1 0.6
2017-Jan-18 07:33N 39°34' W 075°33'0 0.4
2017-Jan-18 06:33N 39°35' W 075°33'0 0.3
2017-Jan-18 05:33N 39°35' W 075°33'1 0.6
2017-Jan-18 04:33N 39°34' W 075°33'0 0.2
2017-Jan-18 03:33N 39°34' W 075°33'2 1.9
2017-Jan-18 02:33N 39°36' W 075°34'8 7.6
2017-Jan-18 01:33N 39°43' W 075°30'8 7.9
2017-Jan-18 00:33N 39°49' W 075°24'7 7.4
2017-Jan-17 23:33N 39°51' W 075°15'6 5.9
2017-Jan-17 22:33N 39°54' W 075°08'1 0.9
2017-Jan-17 21:33N 39°53' W 075°08'6 5.6
2017-Jan-17 20:34N 39°51' W 075°15'0 0.0
2017-Jan-17 19:33N 39°51' W 075°15'0 0.0
2017-Jan-17 18:33N 39°51' W 075°15'4 3.8
2017-Jan-17 17:33N 39°53' W 075°11'4 3.7
2017-Jan-17 16:33N 39°56' W 075°08'0 0.0
2017-Jan-17 15:33N 39°56' W 075°08'0 0.0
2017-Jan-17 14:33N 39°56' W 075°08'0 0.0
2017-Jan-17 13:33N 39°56' W 075°08'0 0.0
2017-Jan-17 12:33N 39°56' W 075°08'0 0.0
2017-Jan-17 11:33N 39°56' W 075°08'0 0.0
2017-Jan-17 10:33N 39°56' W 075°08'0 0.0
2017-Jan-17 09:33N 39°56' W 075°08'0 0.0
2017-Jan-17 08:33N 39°56' W 075°08'0 0.0
2017-Jan-17 07:33N 39°56' W 075°08'0 0.0
2017-Jan-17 06:33N 39°56' W 075°08'0 0.0
2017-Jan-17 05:33N 39°56' W 075°08'0 0.0
2017-Jan-17 04:33N 39°56' W 075°08'0 0.0
2017-Jan-17 03:33N 39°56' W 075°08'0 0.0
2017-Jan-17 02:33N 39°56' W 075°08'0 0.0
2017-Jan-17 01:33N 39°56' W 075°08'0 0.0
2017-Jan-17 00:34N 39°56' W 075°08'0 0.0
2017-Jan-16 23:33N 39°56' W 075°08'4 4.3
2017-Jan-16 22:33N 39°53' W 075°12'5 5.3
2017-Jan-16 21:33N 39°51' W 075°18'7 7.2
2017-Jan-16 20:33N 39°48' W 075°26'8 7.5
2017-Jan-16 19:33N 39°41' W 075°31'7 6.7
2017-Jan-16 18:33N 39°34' W 075°33'6 6.0
2017-Jan-16 17:33N 39°33' W 075°40'7 7.0
2017-Jan-16 16:33N 39°32' W 075°49'7 7.4
2017-Jan-16 15:33N 39°28' W 075°58'8 7.6
2017-Jan-16 14:33N 39°23' W 076°05'7 7.2
2017-Jan-16 13:33N 39°19' W 076°13'8 6.7
2017-Jan-16 12:25N 39°12' W 076°16'5 6.3
2017-Jan-16 11:33N 39°07' W 076°20'7 6.8
2017-Jan-16 10:33N 39°01' W 076°22'6 6.3
2017-Jan-16 09:33N 38°55' W 076°25'6 6.2
2017-Jan-16 08:31N 38°49' W 076°27'7 6.3
2017-Jan-16 07:26N 38°42' W 076°28'105 4.9
2017-Jan-15 10:06N 36°57' W 076°20'4 7.1
2017-Jan-15 09:33N 36°53' W 076°20'6 6.2
2017-Jan-15 08:33N 36°47' W 076°18'4 3.7
2017-Jan-15 07:33N 36°44' W 076°16'  
2017-Jan-12 23:28N 36°43' W 076°13'2 2.4
2017-Jan-12 22:33N 36°44' W 076°15'4 3.7
2017-Jan-12 21:33N 36°47' W 076°18'0 0.2
2017-Jan-12 20:33N 36°47' W 076°18'0 0.0
2017-Jan-12 19:33N 36°47' W 076°18'0 0.0
2017-Jan-12 18:33N 36°47' W 076°18'0 0.0
2017-Jan-12 17:33N 36°47' W 076°18'0 0.0
2017-Jan-12 16:33N 36°47' W 076°18'0 0.0
2017-Jan-12 15:33N 36°47' W 076°18'0 0.0
2017-Jan-12 14:33N 36°47' W 076°18'0 0.0
2017-Jan-12 13:33N 36°47' W 076°18'0 0.0
2017-Jan-12 12:33N 36°47' W 076°18'0 0.0
2017-Jan-12 11:33N 36°47' W 076°18'0 0.0
2017-Jan-12 10:33N 36°47' W 076°18'4 3.6
2017-Jan-12 09:27N 36°43' W 076°15'3 0.1
2017-Jan-10 07:24N 36°43' W 076°11'3 3.4
2017-Jan-10 06:33N 36°43' W 076°15'1 0.8
2017-Jan-10 05:33N 36°44' W 076°16'3 3.4
2017-Jan-10 04:33N 36°47' W 076°18'4 4.4
2017-Jan-10 03:33N 36°51' W 076°18'6 5.7
2017-Jan-10 02:33N 36°56' W 076°20'  

Dump ship's entire track history